sensor_id;sensor_type;location;lat;lon;timestamp;pressure;altitude;pressure_sealevel;temperature;humidity
74778;BME280;63298;53.164;8.610;2023-08-21T00:01:10;102370.97;;;20.97;65.68
74778;BME280;63298;53.164;8.610;2023-08-21T00:03:35;102378.25;;;20.93;65.67
74778;BME280;63298;53.164;8.610;2023-08-21T00:06:01;102386.16;;;20.96;65.79
74778;BME280;63298;53.164;8.610;2023-08-21T00:08:26;102384.47;;;20.95;65.85
74778;BME280;63298;53.164;8.610;2023-08-21T00:10:51;102384.16;;;20.91;66.03
74778;BME280;63298;53.164;8.610;2023-08-21T00:13:16;102381.31;;;20.86;65.91
74778;BME280;63298;53.164;8.610;2023-08-21T00:15:42;102386.38;;;20.89;66.07
74778;BME280;63298;53.164;8.610;2023-08-21T00:18:07;102394.19;;;20.87;65.99
74778;BME280;63298;53.164;8.610;2023-08-21T00:20:32;102388.25;;;20.79;66.29
74778;BME280;63298;53.164;8.610;2023-08-21T00:22:58;102387.09;;;20.75;66.29
74778;BME280;63298;53.164;8.610;2023-08-21T00:25:23;102396.06;;;20.72;66.49
74778;BME280;63298;53.164;8.610;2023-08-21T00:27:49;102393.41;;;20.60;66.46
74778;BME280;63298;53.164;8.610;2023-08-21T00:30:14;102391.91;;;20.52;66.72
74778;BME280;63298;53.164;8.610;2023-08-21T00:32:39;102395.53;;;20.48;66.71
74778;BME280;63298;53.164;8.610;2023-08-21T00:35:05;102386.56;;;20.46;66.88
74778;BME280;63298;53.164;8.610;2023-08-21T00:37:30;102387.91;;;20.43;66.89
74778;BME280;63298;53.164;8.610;2023-08-21T00:39:55;102384.78;;;20.40;66.72
74778;BME280;63298;53.164;8.610;2023-08-21T00:42:21;102386.44;;;20.36;66.89
74778;BME280;63298;53.164;8.610;2023-08-21T00:44:46;102386.56;;;20.24;67.17
74778;BME280;63298;53.164;8.610;2023-08-21T00:47:11;102390.75;;;20.21;67.10
74778;BME280;63298;53.164;8.610;2023-08-21T00:49:37;102375.22;;;20.14;67.35
74778;BME280;63298;53.164;8.610;2023-08-21T00:52:03;102375.53;;;20.12;67.33
74778;BME280;63298;53.164;8.610;2023-08-21T00:54:29;102387.34;;;20.19;67.41
74778;BME280;63298;53.164;8.610;2023-08-21T00:56:55;102389.06;;;20.20;67.45
74778;BME280;63298;53.164;8.610;2023-08-21T00:59:21;102384.81;;;20.18;67.15
74778;BME280;63298;53.164;8.610;2023-08-21T01:01:48;102391.78;;;20.15;67.66
74778;BME280;63298;53.164;8.610;2023-08-21T01:04:14;102375.97;;;20.04;67.41
74778;BME280;63298;53.164;8.610;2023-08-21T01:06:39;102381.25;;;20.01;67.46
74778;BME280;63298;53.164;8.610;2023-08-21T01:09:14;102378.47;;;20.01;67.57
74778;BME280;63298;53.164;8.610;2023-08-21T01:11:50;102370.38;;;20.04;67.49
74778;BME280;63298;53.164;8.610;2023-08-21T01:14:29;102375.97;;;20.04;67.75
74778;BME280;63298;53.164;8.610;2023-08-21T01:16:59;102361.34;;;19.97;67.75
74778;BME280;63298;53.164;8.610;2023-08-21T01:19:36;102376.50;;;20.01;67.79
74778;BME280;63298;53.164;8.610;2023-08-21T01:22:02;102375.97;;;20.04;67.61
74778;BME280;63298;53.164;8.610;2023-08-21T01:24:27;102379.38;;;20.06;67.67
74778;BME280;63298;53.164;8.610;2023-08-21T01:26:53;102373.16;;;20.04;67.50
74778;BME280;63298;53.164;8.610;2023-08-21T01:29:18;102379.63;;;20.05;67.56
74778;BME280;63298;53.164;8.610;2023-08-21T01:31:47;102384.38;;;20.04;67.75
74778;BME280;63298;53.164;8.610;2023-08-21T01:34:15;102389.97;;;20.04;67.71
74778;BME280;63298;53.164;8.610;2023-08-21T01:36:41;102382.41;;;20.05;67.81
74778;BME280;63298;53.164;8.610;2023-08-21T01:39:07;102406.47;;;20.01;67.62
74778;BME280;63298;53.164;8.610;2023-08-21T01:41:33;102405.31;;;19.97;67.75
74778;BME280;63298;53.164;8.610;2023-08-21T01:44:00;102400.50;;;19.92;67.96
74778;BME280;63298;53.164;8.610;2023-08-21T01:46:28;102404.41;;;19.91;67.89
74778;BME280;63298;53.164;8.610;2023-08-21T01:48:53;102401.28;;;19.88;67.84
74778;BME280;63298;53.164;8.610;2023-08-21T01:51:18;102410.00;;;19.91;67.66
74778;BME280;63298;53.164;8.610;2023-08-21T01:53:44;102410.53;;;19.88;67.73
74778;BME280;63298;53.164;8.610;2023-08-21T01:56:09;102409.63;;;19.82;67.71
74778;BME280;63298;53.164;8.610;2023-08-21T01:58:34;102402.81;;;19.78;67.93
74778;BME280;63298;53.164;8.610;2023-08-21T02:01:00;102408.09;;;19.75;67.64
74778;BME280;63298;53.164;8.610;2023-08-21T02:03:25;102397.75;;;19.75;67.93
74778;BME280;63298;53.164;8.610;2023-08-21T02:05:50;102392.94;;;19.71;67.80
74778;BME280;63298;53.164;8.610;2023-08-21T02:08:17;102396.59;;;19.71;67.74
74778;BME280;63298;53.164;8.610;2023-08-21T02:10:50;102404.66;;;19.68;67.97
74778;BME280;63298;53.164;8.610;2023-08-21T02:13:15;102408.19;;;19.58;67.87
74778;BME280;63298;53.164;8.610;2023-08-21T02:15:41;102407.50;;;19.51;68.17
74778;BME280;63298;53.164;8.610;2023-08-21T02:18:06;102410.06;;;19.53;68.27
74778;BME280;63298;53.164;8.610;2023-08-21T02:20:31;102410.06;;;19.53;68.09
74778;BME280;63298;53.164;8.610;2023-08-21T02:22:56;102405.22;;;19.48;68.37
74778;BME280;63298;53.164;8.610;2023-08-21T02:25:22;102406.09;;;19.49;68.62
74778;BME280;63298;53.164;8.610;2023-08-21T02:27:47;102419.97;;;19.44;68.75
74778;BME280;63298;53.164;8.610;2023-08-21T02:30:13;102423.19;;;19.35;68.98
74778;BME280;63298;53.164;8.610;2023-08-21T02:32:38;102430.09;;;19.28;68.93
74778;BME280;63298;53.164;8.610;2023-08-21T02:35:04;102419.06;;;19.21;69.05
74778;BME280;63298;53.164;8.610;2023-08-21T02:37:29;102431.19;;;19.27;69.19
74778;BME280;63298;53.164;8.610;2023-08-21T02:39:54;102428.13;;;19.28;69.13
74778;BME280;63298;53.164;8.610;2023-08-21T02:42:20;102439.81;;;19.25;69.80
74778;BME280;63298;53.164;8.610;2023-08-21T02:44:45;102427.91;;;19.13;69.86
74778;BME280;63298;53.164;8.610;2023-08-21T02:47:11;102444.59;;;19.08;70.26
74778;BME280;63298;53.164;8.610;2023-08-21T02:49:36;102436.19;;;18.91;70.73
74778;BME280;63298;53.164;8.610;2023-08-21T02:52:02;102441.03;;;18.79;70.88
74778;BME280;63298;53.164;8.610;2023-08-21T02:54:27;102446.16;;;18.71;71.68
74778;BME280;63298;53.164;8.610;2023-08-21T02:56:52;102440.75;;;18.64;71.74
74778;BME280;63298;53.164;8.610;2023-08-21T02:59:18;102439.81;;;18.59;71.89
74778;BME280;63298;53.164;8.610;2023-08-21T03:01:43;102437.13;;;18.52;71.93
74778;BME280;63298;53.164;8.610;2023-08-21T03:04:09;102436.78;;;18.48;72.06
74778;BME280;63298;53.164;8.610;2023-08-21T03:06:34;102440.06;;;18.57;72.34
74778;BME280;63298;53.164;8.610;2023-08-21T03:09:00;102434.91;;;18.66;71.98
74778;BME280;63298;53.164;8.610;2023-08-21T03:11:25;102434.97;;;18.71;71.82
74778;BME280;63298;53.164;8.610;2023-08-21T03:13:50;102415.69;;;18.69;71.65
74778;BME280;63298;53.164;8.610;2023-08-21T03:16:16;102423.41;;;18.79;71.65
74778;BME280;63298;53.164;8.610;2023-08-21T03:18:54;102418.38;;;18.81;71.33
74778;BME280;63298;53.164;8.610;2023-08-21T03:21:20;102414.91;;;18.90;71.38
74778;BME280;63298;53.164;8.610;2023-08-21T03:23:45;102421.97;;;18.93;71.04
74778;BME280;63298;53.164;8.610;2023-08-21T03:26:11;102423.66;;;18.94;70.85
74778;BME280;63298;53.164;8.610;2023-08-21T03:28:36;102416.47;;;18.98;70.93
74778;BME280;63298;53.164;8.610;2023-08-21T03:31:02;102417.56;;;18.97;70.73
74778;BME280;63298;53.164;8.610;2023-08-21T03:33:27;102413.91;;;18.96;70.85
74778;BME280;63298;53.164;8.610;2023-08-21T03:35:55;102420.59;;;18.95;70.60
74778;BME280;63298;53.164;8.610;2023-08-21T03:38:20;102421.44;;;18.96;70.79
74778;BME280;63298;53.164;8.610;2023-08-21T03:40:46;102421.13;;;18.92;70.59
74778;BME280;63298;53.164;8.610;2023-08-21T03:43:14;102421.88;;;18.88;70.85
74778;BME280;63298;53.164;8.610;2023-08-21T03:45:39;102416.28;;;18.88;70.96
74778;BME280;63298;53.164;8.610;2023-08-21T03:48:04;102420.50;;;18.90;70.53
74778;BME280;63298;53.164;8.610;2023-08-21T03:50:30;102411.25;;;18.90;70.79
74778;BME280;63298;53.164;8.610;2023-08-21T03:52:55;102412.63;;;18.87;70.58
74778;BME280;63298;53.164;8.610;2023-08-21T03:55:20;102430.34;;;18.93;70.34
74778;BME280;63298;53.164;8.610;2023-08-21T03:57:46;102422.13;;;18.86;70.49
74778;BME280;63298;53.164;8.610;2023-08-21T04:00:11;102427.22;;;18.89;70.55
74778;BME280;63298;53.164;8.610;2023-08-21T04:02:37;102419.56;;;18.85;69.88
74778;BME280;63298;53.164;8.610;2023-08-21T04:05:02;102423.81;;;18.87;70.37
74778;BME280;63298;53.164;8.610;2023-08-21T04:07:27;102431.38;;;18.87;70.33
74778;BME280;63298;53.164;8.610;2023-08-21T04:09:53;102427.47;;;18.88;70.41
74778;BME280;63298;53.164;8.610;2023-08-21T04:12:18;102432.22;;;18.87;70.06
74778;BME280;63298;53.164;8.610;2023-08-21T04:14:43;102426.53;;;18.82;70.14
74778;BME280;63298;53.164;8.610;2023-08-21T04:17:09;102426.53;;;18.82;70.21
74778;BME280;63298;53.164;8.610;2023-08-21T04:19:34;102422.19;;;18.75;70.04
74778;BME280;63298;53.164;8.610;2023-08-21T04:21:59;102434.50;;;18.74;69.84
74778;BME280;63298;53.164;8.610;2023-08-21T04:24:25;102425.41;;;18.67;69.94
74778;BME280;63298;53.164;8.610;2023-08-21T04:26:50;102433.31;;;18.70;69.94
74778;BME280;63298;53.164;8.610;2023-08-21T04:29:15;102435.75;;;18.66;69.89
74778;BME280;63298;53.164;8.610;2023-08-21T04:31:41;102437.69;;;18.66;69.76
74778;BME280;63298;53.164;8.610;2023-08-21T04:34:06;102427.88;;;18.63;69.44
74778;BME280;63298;53.164;8.610;2023-08-21T04:36:31;102436.75;;;18.60;69.36
74778;BME280;63298;53.164;8.610;2023-08-21T04:38:56;102435.31;;;18.58;68.96
74778;BME280;63298;53.164;8.610;2023-08-21T04:41:22;102426.47;;;18.49;69.50
74778;BME280;63298;53.164;8.610;2023-08-21T04:43:53;102430.69;;;18.51;69.52
74778;BME280;63298;53.164;8.610;2023-08-21T04:46:18;102431.78;;;18.50;69.23
74778;BME280;63298;53.164;8.610;2023-08-21T04:48:44;102435.69;;;18.49;69.42
74778;BME280;63298;53.164;8.610;2023-08-21T04:51:09;102429.16;;;18.44;69.31
74778;BME280;63298;53.164;8.610;2023-08-21T04:53:34;102432.53;;;18.46;69.13
74778;BME280;63298;53.164;8.610;2023-08-21T04:56:00;102439.50;;;18.43;69.31
74778;BME280;63298;53.164;8.610;2023-08-21T04:58:25;102436.94;;;18.42;69.17
74778;BME280;63298;53.164;8.610;2023-08-21T05:00:50;102435.84;;;18.43;69.14
74778;BME280;63298;53.164;8.610;2023-08-21T05:03:16;102439.97;;;18.40;69.18
74778;BME280;63298;53.164;8.610;2023-08-21T05:05:41;102440.25;;;18.39;69.19
74778;BME280;63298;53.164;8.610;2023-08-21T05:08:06;102439.16;;;18.40;69.11
74778;BME280;63298;53.164;8.610;2023-08-21T05:10:31;102433.81;;;18.38;68.99
74778;BME280;63298;53.164;8.610;2023-08-21T05:12:57;102439.38;;;18.38;68.98
74778;BME280;63298;53.164;8.610;2023-08-21T05:15:22;102446.69;;;18.39;69.07
74778;BME280;63298;53.164;8.610;2023-08-21T05:17:48;102442.19;;;18.38;69.07
74778;BME280;63298;53.164;8.610;2023-08-21T05:20:13;102443.28;;;18.37;69.04
74778;BME280;63298;53.164;8.610;2023-08-21T05:22:38;102442.94;;;18.34;69.41
74778;BME280;63298;53.164;8.610;2023-08-21T05:25:04;102446.06;;;18.37;69.33
74778;BME280;63298;53.164;8.610;2023-08-21T05:27:29;102442.66;;;18.35;69.29
74778;BME280;63298;53.164;8.610;2023-08-21T05:29:54;102450.56;;;18.38;69.51
74778;BME280;63298;53.164;8.610;2023-08-21T05:32:20;102449.19;;;18.41;69.45
74778;BME280;63298;53.164;8.610;2023-08-21T05:34:45;102442.75;;;18.40;69.32
74778;BME280;63298;53.164;8.610;2023-08-21T05:37:10;102453.56;;;18.48;69.17
74778;BME280;63298;53.164;8.610;2023-08-21T05:39:35;102452.19;;;18.51;69.20
74778;BME280;63298;53.164;8.610;2023-08-21T05:42:01;102444.56;;;18.46;69.06
74778;BME280;63298;53.164;8.610;2023-08-21T05:44:26;102450.91;;;18.53;69.29
74778;BME280;63298;53.164;8.610;2023-08-21T05:46:51;102461.09;;;18.60;69.16
74778;BME280;63298;53.164;8.610;2023-08-21T05:49:17;102457.53;;;18.64;69.25
74778;BME280;63298;53.164;8.610;2023-08-21T05:51:42;102451.09;;;18.64;69.23
74778;BME280;63298;53.164;8.610;2023-08-21T05:54:07;102466.59;;;18.71;69.45
74778;BME280;63298;53.164;8.610;2023-08-21T05:56:33;102469.72;;;18.75;69.48
74778;BME280;63298;53.164;8.610;2023-08-21T05:58:58;102458.06;;;18.78;69.26
74778;BME280;63298;53.164;8.610;2023-08-21T06:01:23;102462.38;;;18.85;69.42
74778;BME280;63298;53.164;8.610;2023-08-21T06:03:49;102458.22;;;18.88;69.88
74778;BME280;63298;53.164;8.610;2023-08-21T06:06:14;102466.44;;;18.94;69.67
74778;BME280;63298;53.164;8.610;2023-08-21T06:08:39;102465.97;;;18.97;69.76
74778;BME280;63298;53.164;8.610;2023-08-21T06:11:04;102470.44;;;18.98;69.96
74778;BME280;63298;53.164;8.610;2023-08-21T06:13:30;102474.69;;;19.01;69.74
74778;BME280;63298;53.164;8.610;2023-08-21T06:15:55;102470.78;;;19.02;70.19
74778;BME280;63298;53.164;8.610;2023-08-21T06:18:21;102476.38;;;19.02;69.79
74778;BME280;63298;53.164;8.610;2023-08-21T06:20:46;102472.50;;;19.03;70.42
74778;BME280;63298;53.164;8.610;2023-08-21T06:23:11;102470.88;;;19.07;70.08
74778;BME280;63298;53.164;8.610;2023-08-21T06:25:37;102469.78;;;19.08;70.34
74778;BME280;63298;53.164;8.610;2023-08-21T06:28:03;102470.34;;;19.10;70.29
74778;BME280;63298;53.164;8.610;2023-08-21T06:30:29;102465.88;;;19.09;70.58
74778;BME280;63298;53.164;8.610;2023-08-21T06:32:55;102476.56;;;19.12;70.50
74778;BME280;63298;53.164;8.610;2023-08-21T06:35:20;102463.41;;;19.13;71.06
74778;BME280;63298;53.164;8.610;2023-08-21T06:37:45;102464.84;;;19.15;71.22
74778;BME280;63298;53.164;8.610;2023-08-21T06:40:11;102471.63;;;19.19;71.10
74778;BME280;63298;53.164;8.610;2023-08-21T06:42:36;102471.97;;;19.23;71.22
74778;BME280;63298;53.164;8.610;2023-08-21T06:45:02;102479.69;;;19.32;71.19
74778;BME280;63298;53.164;8.610;2023-08-21T06:47:28;102475.97;;;19.44;70.97
74778;BME280;63298;53.164;8.610;2023-08-21T06:49:53;102489.03;;;19.55;71.15
74778;BME280;63298;53.164;8.610;2023-08-21T06:52:18;102485.28;;;19.66;71.04
74778;BME280;63298;53.164;8.610;2023-08-21T06:54:43;102481.44;;;19.72;71.04
74778;BME280;63298;53.164;8.610;2023-08-21T06:57:09;102484.72;;;19.86;70.81
74778;BME280;63298;53.164;8.610;2023-08-21T06:59:34;102485.72;;;19.96;70.82
74778;BME280;63298;53.164;8.610;2023-08-21T07:01:59;102491.44;;;20.06;70.87
74778;BME280;63298;53.164;8.610;2023-08-21T07:04:25;102483.63;;;20.08;70.64
74778;BME280;63298;53.164;8.610;2023-08-21T07:06:50;102486.22;;;20.15;70.62
74778;BME280;63298;53.164;8.610;2023-08-21T07:09:15;102488.50;;;20.18;70.87
74778;BME280;63298;53.164;8.610;2023-08-21T07:11:41;102489.69;;;20.22;70.99
74778;BME280;63298;53.164;8.610;2023-08-21T07:14:06;102482.72;;;20.24;70.98
74778;BME280;63298;53.164;8.610;2023-08-21T07:16:31;102483.41;;;20.32;70.97
74778;BME280;63298;53.164;8.610;2023-08-21T07:18:56;102478.41;;;20.39;70.86
74778;BME280;63298;53.164;8.610;2023-08-21T07:21:22;102491.75;;;20.53;70.89
74778;BME280;63298;53.164;8.610;2023-08-21T07:23:47;102491.38;;;20.66;70.69
74778;BME280;63298;53.164;8.610;2023-08-21T07:26:12;102483.38;;;20.80;70.36
74778;BME280;63298;53.164;8.610;2023-08-21T07:28:38;102486.03;;;20.92;70.35
74778;BME280;63298;53.164;8.610;2023-08-21T07:31:03;102489.50;;;21.04;70.35
74778;BME280;63298;53.164;8.610;2023-08-21T07:33:28;102489.59;;;21.14;70.24
74778;BME280;63298;53.164;8.610;2023-08-21T07:36:01;102484.63;;;21.21;70.15
74778;BME280;63298;53.164;8.610;2023-08-21T07:38:27;102494.84;;;21.37;69.75
74778;BME280;63298;53.164;8.610;2023-08-21T07:41:05;102481.66;;;21.38;69.73
74778;BME280;63298;53.164;8.610;2023-08-21T07:43:31;102494.47;;;21.61;69.48
74778;BME280;63298;53.164;8.610;2023-08-21T07:45:57;102490.31;;;21.68;69.22
74778;BME280;63298;53.164;8.610;2023-08-21T07:48:22;102494.53;;;21.76;69.35
74778;BME280;63298;53.164;8.610;2023-08-21T07:50:52;102498.81;;;21.83;69.28
74778;BME280;63298;53.164;8.610;2023-08-21T07:53:17;102496.59;;;21.85;69.06
74778;BME280;63298;53.164;8.610;2023-08-21T07:55:42;102505.69;;;21.98;69.05
74778;BME280;63298;53.164;8.610;2023-08-21T07:58:08;102494.19;;;22.04;68.49
74778;BME280;63298;53.164;8.610;2023-08-21T08:00:33;102500.16;;;22.18;68.42
74778;BME280;63298;53.164;8.610;2023-08-21T08:02:58;102496.28;;;22.29;68.09
74778;BME280;63298;53.164;8.610;2023-08-21T08:05:24;102496.34;;;22.44;67.48
74778;BME280;63298;53.164;8.610;2023-08-21T08:07:49;102498.03;;;22.55;67.10
74778;BME280;63298;53.164;8.610;2023-08-21T08:10:14;102495.56;;;22.64;66.73
74778;BME280;63298;53.164;8.610;2023-08-21T08:12:43;102503.69;;;22.65;66.02
74778;BME280;63298;53.164;8.610;2023-08-21T08:15:08;102499.53;;;22.73;65.65
74778;BME280;63298;53.164;8.610;2023-08-21T08:17:34;102478.41;;;22.75;65.45
74778;BME280;63298;53.164;8.610;2023-08-21T08:19:59;102496.41;;;22.69;65.84
74778;BME280;63298;53.164;8.610;2023-08-21T08:22:25;102491.88;;;22.58;65.65
74778;BME280;63298;53.164;8.610;2023-08-21T08:24:50;102488.22;;;22.58;65.74
74778;BME280;63298;53.164;8.610;2023-08-21T08:27:15;102486.59;;;22.72;65.59
74778;BME280;63298;53.164;8.610;2023-08-21T08:29:41;102488.88;;;22.95;65.12
74778;BME280;63298;53.164;8.610;2023-08-21T08:32:06;102475.91;;;23.09;64.94
74778;BME280;63298;53.164;8.610;2023-08-21T08:34:31;102489.16;;;23.34;64.30
74778;BME280;63298;53.164;8.610;2023-08-21T08:36:57;102488.59;;;23.32;62.78
74778;BME280;63298;53.164;8.610;2023-08-21T08:39:22;102479.88;;;23.23;63.02
74778;BME280;63298;53.164;8.610;2023-08-21T08:41:56;102490.31;;;23.38;62.69
74778;BME280;63298;53.164;8.610;2023-08-21T08:44:24;102487.19;;;23.55;63.00
74778;BME280;63298;53.164;8.610;2023-08-21T08:46:51;102483.81;;;23.68;62.74
74778;BME280;63298;53.164;8.610;2023-08-21T08:49:17;102483.22;;;23.76;62.49
74778;BME280;63298;53.164;8.610;2023-08-21T08:51:42;102484.31;;;23.90;62.45
74778;BME280;63298;53.164;8.610;2023-08-21T08:54:08;102478.63;;;24.00;62.11
74778;BME280;63298;53.164;8.610;2023-08-21T08:56:34;102475.50;;;24.17;61.46
74778;BME280;63298;53.164;8.610;2023-08-21T08:58:59;102481.59;;;24.39;61.24
74778;BME280;63298;53.164;8.610;2023-08-21T09:01:25;102478.69;;;24.55;60.72
74778;BME280;63298;53.164;8.610;2023-08-21T09:03:50;102484.88;;;24.62;59.99
74778;BME280;63298;53.164;8.610;2023-08-21T09:06:15;102479.22;;;24.62;60.01
74778;BME280;63298;53.164;8.610;2023-08-21T09:08:53;102476.69;;;24.60;59.23
74778;BME280;63298;53.164;8.610;2023-08-21T09:11:19;102467.84;;;24.72;59.55
74778;BME280;63298;53.164;8.610;2023-08-21T09:13:45;102459.03;;;24.83;58.92
74778;BME280;63298;53.164;8.610;2023-08-21T09:16:10;102471.66;;;25.01;58.77
74778;BME280;63298;53.164;8.610;2023-08-21T09:18:36;102463.94;;;25.07;58.27
74778;BME280;63298;53.164;8.610;2023-08-21T09:21:02;102474.72;;;25.05;57.82
74778;BME280;63298;53.164;8.610;2023-08-21T09:23:28;102464.34;;;24.95;56.48
74778;BME280;63298;53.164;8.610;2023-08-21T09:25:53;102454.50;;;24.87;57.15
74778;BME280;63298;53.164;8.610;2023-08-21T09:28:20;102463.94;;;25.07;56.77
74778;BME280;63298;53.164;8.610;2023-08-21T09:30:46;102470.03;;;25.24;56.27
74778;BME280;63298;53.164;8.610;2023-08-21T09:33:11;102466.59;;;25.27;55.45
74778;BME280;63298;53.164;8.610;2023-08-21T09:35:37;102460.69;;;25.23;54.98
74778;BME280;63298;53.164;8.610;2023-08-21T09:38:03;102463.53;;;25.23;55.41
74778;BME280;63298;53.164;8.610;2023-08-21T09:40:28;102455.56;;;25.30;55.34
74778;BME280;63298;53.164;8.610;2023-08-21T09:42:55;102454.56;;;25.45;55.25
74778;BME280;63298;53.164;8.610;2023-08-21T09:45:25;102451.00;;;25.63;54.95
74778;BME280;63298;53.164;8.610;2023-08-21T09:47:53;102452.28;;;25.76;54.32
74778;BME280;63298;53.164;8.610;2023-08-21T09:50:19;102446.50;;;25.86;53.49
74778;BME280;63298;53.164;8.610;2023-08-21T09:52:45;102440.78;;;25.91;52.75
74778;BME280;63298;53.164;8.610;2023-08-21T09:55:13;102444.16;;;25.93;52.62
74778;BME280;63298;53.164;8.610;2023-08-21T09:57:39;102446.44;;;25.91;52.03
74778;BME280;63298;53.164;8.610;2023-08-21T10:00:05;102451.88;;;25.88;52.60
74778;BME280;63298;53.164;8.610;2023-08-21T10:02:30;102438.56;;;25.88;52.11
74778;BME280;63298;53.164;8.610;2023-08-21T10:04:56;102451.13;;;26.01;52.62
74778;BME280;63298;53.164;8.610;2023-08-21T10:07:26;102450.09;;;26.15;52.23
74778;BME280;63298;53.164;8.610;2023-08-21T10:09:53;102444.25;;;26.31;52.16
74778;BME280;63298;53.164;8.610;2023-08-21T10:12:19;102449.72;;;26.46;51.46
74778;BME280;63298;53.164;8.610;2023-08-21T10:14:44;102447.34;;;26.53;51.26
74778;BME280;63298;53.164;8.610;2023-08-21T10:17:10;102452.03;;;26.62;51.33
74778;BME280;63298;53.164;8.610;2023-08-21T10:19:36;102445.78;;;26.79;52.04
74778;BME280;63298;53.164;8.610;2023-08-21T10:22:01;102436.47;;;26.97;51.37
74778;BME280;63298;53.164;8.610;2023-08-21T10:24:27;102440.09;;;27.03;49.67
74778;BME280;63298;53.164;8.610;2023-08-21T10:26:53;102429.50;;;27.09;49.87
74778;BME280;63298;53.164;8.610;2023-08-21T10:29:19;102429.00;;;27.20;50.33
74778;BME280;63298;53.164;8.610;2023-08-21T10:31:44;102434.69;;;27.34;49.46
74778;BME280;63298;53.164;8.610;2023-08-21T10:34:13;102434.28;;;27.27;48.54
74778;BME280;63298;53.164;8.610;2023-08-21T10:41:39;102440.34;;;27.20;48.89
74778;BME280;63298;53.164;8.610;2023-08-21T10:44:06;102431.94;;;27.29;48.36
74778;BME280;63298;53.164;8.610;2023-08-21T10:46:50;102420.00;;;27.32;43.27
74778;BME280;63298;53.164;8.610;2023-08-21T10:49:16;102429.25;;;27.37;47.72
74778;BME280;63298;53.164;8.610;2023-08-21T10:51:42;102428.84;;;27.44;47.51
74778;BME280;63298;53.164;8.610;2023-08-21T10:54:13;102430.66;;;27.54;47.45
74778;BME280;63298;53.164;8.610;2023-08-21T10:56:38;102429.31;;;27.65;46.76
74778;BME280;63298;53.164;8.610;2023-08-21T10:59:03;102428.72;;;27.68;46.35
74778;BME280;63298;53.164;8.610;2023-08-21T11:01:44;102418.81;;;27.65;45.95
74778;BME280;63298;53.164;8.610;2023-08-21T11:04:11;102422.59;;;27.74;46.25
74778;BME280;63298;53.164;8.610;2023-08-21T11:06:38;102423.75;;;27.73;45.06
74778;BME280;63298;53.164;8.610;2023-08-21T11:09:03;102441.00;;;27.77;45.27
74778;BME280;63298;53.164;8.610;2023-08-21T11:11:28;102433.84;;;27.79;45.59
74778;BME280;63298;53.164;8.610;2023-08-21T11:13:54;102432.69;;;27.80;45.18
74778;BME280;63298;53.164;8.610;2023-08-21T11:16:19;102428.16;;;27.79;45.53
74778;BME280;63298;53.164;8.610;2023-08-21T11:18:45;102432.78;;;27.89;44.18
74778;BME280;63298;53.164;8.610;2023-08-21T11:21:11;102429.97;;;27.89;45.79
74778;BME280;63298;53.164;8.610;2023-08-21T11:23:41;102421.25;;;27.85;44.82
74778;BME280;63298;53.164;8.610;2023-08-21T11:26:10;102425.22;;;27.98;45.18
74778;BME280;63298;53.164;8.610;2023-08-21T11:28:35;102422.81;;;28.05;45.37
74778;BME280;63298;53.164;8.610;2023-08-21T11:31:01;102425.16;;;28.17;44.63
74778;BME280;63298;53.164;8.610;2023-08-21T11:33:27;102430.19;;;28.20;44.50
74778;BME280;63298;53.164;8.610;2023-08-21T11:35:52;102412.50;;;28.23;45.22
74778;BME280;63298;53.164;8.610;2023-08-21T11:38:22;102418.06;;;28.28;41.98
74778;BME280;63298;53.164;8.610;2023-08-21T11:40:55;102409.66;;;28.09;39.93
74778;BME280;63298;53.164;8.610;2023-08-21T11:43:21;102422.16;;;28.08;43.44
74778;BME280;63298;53.164;8.610;2023-08-21T11:45:47;102416.91;;;27.88;42.65
74778;BME280;63298;53.164;8.610;2023-08-21T11:48:12;102414.09;;;27.74;42.72
74778;BME280;63298;53.164;8.610;2023-08-21T11:50:39;102416.53;;;27.67;42.63
74778;BME280;63298;53.164;8.610;2023-08-21T11:53:04;102415.88;;;27.70;43.34
74778;BME280;63298;53.164;8.610;2023-08-21T11:55:30;102421.88;;;27.82;43.76
74778;BME280;63298;53.164;8.610;2023-08-21T11:57:55;102424.25;;;28.03;44.37
74778;BME280;63298;53.164;8.610;2023-08-21T12:00:27;102420.72;;;28.24;43.69
74778;BME280;63298;53.164;8.610;2023-08-21T12:02:57;102421.28;;;28.49;43.38
74778;BME280;63298;53.164;8.610;2023-08-21T12:05:23;102422.41;;;28.61;43.01
74778;BME280;63298;53.164;8.610;2023-08-21T12:07:49;102435.66;;;28.66;42.63
74778;BME280;63298;53.164;8.610;2023-08-21T12:10:14;102430.06;;;28.74;42.30
74778;BME280;63298;53.164;8.610;2023-08-21T12:12:46;102420.03;;;28.91;42.92
74778;BME280;63298;53.164;8.610;2023-08-21T12:15:12;102419.94;;;29.04;41.93
74778;BME280;63298;53.164;8.610;2023-08-21T12:17:37;102411.16;;;28.92;40.69
74778;BME280;63298;53.164;8.610;2023-08-21T12:20:02;102421.66;;;28.92;40.68
74778;BME280;63298;53.164;8.610;2023-08-21T12:22:28;102409.53;;;28.77;40.78
74778;BME280;63298;53.164;8.610;2023-08-21T12:24:53;102419.13;;;28.68;40.40
74778;BME280;63298;53.164;8.610;2023-08-21T12:27:19;102420.28;;;28.67;39.84
74778;BME280;63298;53.164;8.610;2023-08-21T12:29:44;102417.09;;;28.46;38.75
74778;BME280;63298;53.164;8.610;2023-08-21T12:32:09;102410.34;;;28.42;38.69
74778;BME280;63298;53.164;8.610;2023-08-21T12:34:34;102400.69;;;28.43;38.85
74778;BME280;63298;53.164;8.610;2023-08-21T12:37:00;102404.72;;;28.64;39.37
74778;BME280;63298;53.164;8.610;2023-08-21T12:39:25;102403.22;;;28.81;39.49
74778;BME280;63298;53.164;8.610;2023-08-21T12:41:50;102398.03;;;28.83;39.78
74778;BME280;63298;53.164;8.610;2023-08-21T12:44:16;102399.78;;;28.92;39.10
74778;BME280;63298;53.164;8.610;2023-08-21T12:46:41;102400.75;;;28.52;38.77
74778;BME280;63298;53.164;8.610;2023-08-21T12:49:06;102386.09;;;28.22;39.66